Time;durP1;ratioP1;P1;durP2;ratioP2;P2;SDS_P1;SDS_P2;PMS_P1;PMS_P2;Temp;Humidity;BMP_temperature;BMP_pressure;BME280_temperature;BME280_humidity;BME280_pressure;Samples;Min_cycle;Max_cycle;Signal;HPM_P1;HPM_P2
2023/04/06 00:01:49;;;;;;;9.77;6.28;;;4.00;99.90;;;;;;4981615;28;20042;-82
2023/04/06 00:04:15;;;;;;;7.75;6.10;;;4.00;99.90;;;;;;4981078;28;20047;-82
2023/04/06 00:06:42;;;;;;;9.30;5.47;;;4.10;99.90;;;;;;4948288;28;20051;-82
2023/04/06 00:09:07;;;;;;;6.95;5.32;;;3.90;99.90;;;;;;4981245;28;20169;-82
2023/04/06 00:11:33;;;;;;;7.28;5.40;;;4.00;99.90;;;;;;4981144;28;20094;-82
2023/04/06 00:14:00;;;;;;;9.00;6.18;;;3.90;99.90;;;;;;4981866;28;20509;-82
2023/04/06 00:16:26;;;;;;;8.13;6.10;;;4.00;99.90;;;;;;4964222;28;20054;-82
2023/04/06 00:18:51;;;;;;;10.02;6.22;;;4.00;99.90;;;;;;4981761;28;20381;-82
2023/04/06 00:21:17;;;;;;;9.05;6.20;;;4.00;99.90;;;;;;4964215;28;20047;-82
2023/04/06 00:23:43;;;;;;;11.32;6.97;;;3.90;99.90;;;;;;4981040;28;20047;-82
2023/04/06 00:26:10;;;;;;;9.57;6.07;;;3.90;99.90;;;;;;4963692;28;20147;-81
2023/04/06 00:28:37;;;;;;;8.23;6.07;;;4.00;99.90;;;;;;4981853;28;20054;-82
2023/04/06 00:31:03;;;;;;;8.38;6.03;;;3.80;99.90;;;;;;4963536;28;20564;-82
2023/04/06 00:33:28;;;;;;;9.38;6.53;;;3.90;99.90;;;;;;4980880;28;20051;-82
2023/04/06 00:35:54;;;;;;;8.65;5.93;;;3.80;99.90;;;;;;4947753;28;20045;-82
2023/04/06 00:38:21;;;;;;;9.82;5.80;;;3.80;99.90;;;;;;4963730;28;20470;-81
2023/04/06 00:40:47;;;;;;;9.23;5.65;;;3.90;99.90;;;;;;4963706;28;20482;-81
2023/04/06 00:43:13;;;;;;;10.20;6.22;;;3.80;99.90;;;;;;4980761;28;20089;-81
2023/04/06 00:45:40;;;;;;;9.35;5.75;;;3.80;99.90;;;;;;4981030;28;20046;-81
2023/04/06 00:48:07;;;;;;;7.95;6.07;;;3.80;99.90;;;;;;4980795;28;20489;-81
2023/04/06 00:50:33;;;;;;;7.93;5.93;;;3.70;99.90;;;;;;4963374;28;20058;-81
2023/04/06 00:52:59;;;;;;;10.48;6.65;;;3.70;99.90;;;;;;4980845;28;20051;-81
2023/04/06 00:55:27;;;;;;;8.55;6.18;;;3.60;99.90;;;;;;4981272;28;20093;-81
2023/04/06 00:57:52;;;;;;;10.77;6.90;;;3.70;99.90;;;;;;4981388;28;20059;-81
2023/04/06 01:00:18;;;;;;;10.13;6.57;;;3.70;99.90;;;;;;4961297;28;20047;-81
2023/04/06 01:02:47;;;;;;;8.65;6.75;;;3.50;99.90;;;;;;4977858;28;20374;-81
2023/04/06 01:05:13;;;;;;;8.98;6.55;;;4.00;99.90;;;;;;4977730;28;20047;-81
2023/04/06 01:07:39;;;;;;;10.48;5.93;;;3.50;99.90;;;;;;4977612;28;20125;-81
2023/04/06 01:10:06;;;;;;;7.80;5.88;;;3.40;99.90;;;;;;4960484;28;20046;-81
2023/04/06 01:12:31;;;;;;;10.23;6.82;;;3.50;99.90;;;;;;4977727;28;20134;-81
2023/04/06 01:14:57;;;;;;;8.93;6.25;;;3.50;99.90;;;;;;4977730;28;20126;-81
2023/04/06 01:17:23;;;;;;;9.95;6.80;;;3.50;99.90;;;;;;4978187;28;20043;-81
2023/04/06 01:19:53;;;;;;;10.57;6.68;;;3.50;99.90;;;;;;4960626;28;20051;-81
2023/04/06 01:22:19;;;;;;;9.35;6.32;;;3.50;99.90;;;;;;4961099;28;20086;-81
2023/04/06 01:24:45;;;;;;;10.15;7.03;;;3.30;99.90;;;;;;4977640;28;20122;-81
2023/04/06 01:27:12;;;;;;;9.98;6.45;;;3.20;99.90;;;;;;4977873;28;20065;-81
2023/04/06 01:29:40;;;;;;;9.80;6.57;;;3.30;99.90;;;;;;4945742;28;20135;-81
2023/04/06 01:32:07;;;;;;;7.85;6.22;;;3.00;99.90;;;;;;4961705;28;20525;-82
2023/04/06 01:34:32;;;;;;;9.98;6.68;;;3.20;99.90;;;;;;4977923;28;20086;-81
2023/04/06 01:36:58;;;;;;;9.93;6.90;;;3.10;99.90;;;;;;4977945;28;20055;-81
2023/04/06 01:39:25;;;;;;;9.55;6.50;;;3.10;99.90;;;;;;4978558;28;20061;-81
2023/04/06 01:41:51;;;;;;;10.52;7.00;;;3.10;99.90;;;;;;4978219;28;20076;-81
2023/04/06 01:44:18;;;;;;;11.00;7.63;;;3.20;99.90;;;;;;4960332;28;20512;-81
2023/04/06 01:46:45;;;;;;;10.02;6.80;;;3.10;99.90;;;;;;4977748;28;20108;-81
2023/04/06 01:49:11;;;;;;;10.15;7.18;;;3.00;99.90;;;;;;4977535;28;20051;-81
2023/04/06 01:51:37;;;;;;;10.00;7.32;;;3.00;99.90;;;;;;4976878;28;20051;-81
2023/04/06 01:54:03;;;;;;;8.68;7.00;;;3.00;99.90;;;;;;4944672;28;20047;-81
2023/04/06 01:56:29;;;;;;;11.18;7.13;;;3.00;99.90;;;;;;4943664;28;20063;-81
2023/04/06 01:58:55;;;;;;;13.65;7.28;;;3.00;99.90;;;;;;4960077;28;20098;-81
2023/04/06 02:01:21;;;;;;;9.48;6.72;;;2.90;99.90;;;;;;4943708;28;20043;-81
2023/04/06 02:03:46;;;;;;;9.57;7.55;;;3.00;99.90;;;;;;4977220;28;20054;-81
2023/04/06 02:06:12;;;;;;;11.52;7.47;;;3.00;99.90;;;;;;4943305;28;20047;-81
2023/04/06 02:08:38;;;;;;;10.52;7.32;;;2.80;99.90;;;;;;4960264;28;20046;-80
2023/04/06 02:11:04;;;;;;;11.88;7.85;;;3.00;99.90;;;;;;4959107;28;20086;-81
2023/04/06 02:13:30;;;;;;;11.52;7.43;;;2.90;99.90;;;;;;4976511;28;20089;-81
2023/04/06 02:15:56;;;;;;;11.40;7.05;;;2.80;99.90;;;;;;4976897;28;20501;-81
2023/04/06 02:18:22;;;;;;;11.43;7.32;;;2.80;99.90;;;;;;4959306;28;20441;-81
2023/04/06 02:20:48;;;;;;;11.65;6.85;;;2.80;99.90;;;;;;4976195;28;20043;-81
2023/04/06 02:23:14;;;;;;;10.30;6.93;;;2.60;99.90;;;;;;4958939;28;20051;-81
2023/04/06 02:25:40;;;;;;;12.52;7.20;;;2.60;99.90;;;;;;4942779;28;20084;-81
2023/04/06 02:28:06;;;;;;;10.45;7.75;;;2.70;99.90;;;;;;4976133;28;20050;-81
2023/04/06 02:30:32;;;;;;;9.20;7.18;;;2.60;99.90;;;;;;4959056;28;20047;-81
2023/04/06 02:33:02;;;;;;;9.75;6.95;;;2.60;99.90;;;;;;4959135;28;20046;-82
2023/04/06 02:35:31;;;;;;;11.40;7.72;;;2.90;99.90;;;;;;4976061;28;20196;-81
2023/04/06 02:37:57;;;;;;;9.40;7.43;;;2.60;99.90;;;;;;4975818;28;20061;-81
2023/04/06 02:40:23;;;;;;;11.07;7.38;;;2.50;99.90;;;;;;4959587;28;20047;-81
2023/04/06 02:42:48;;;;;;;12.45;7.63;;;2.60;99.90;;;;;;4976524;28;20121;-81
2023/04/06 02:45:15;;;;;;;12.38;7.63;;;2.60;99.90;;;;;;4942528;28;20058;-81
2023/04/06 02:47:40;;;;;;;8.95;6.88;;;2.60;99.90;;;;;;4975986;28;20082;-81
2023/04/06 02:50:06;;;;;;;12.18;8.02;;;2.50;99.90;;;;;;4976037;28;20164;-81
2023/04/06 02:52:32;;;;;;;10.27;7.68;;;2.40;99.90;;;;;;4958448;28;20134;-81
2023/04/06 02:54:58;;;;;;;11.18;7.70;;;2.50;99.90;;;;;;4958468;28;20177;-81
2023/04/06 02:57:23;;;;;;;10.50;7.78;;;2.50;99.90;;;;;;4976234;28;20210;-81
2023/04/06 02:59:49;;;;;;;11.32;7.57;;;2.50;99.90;;;;;;4958475;28;20047;-81
2023/04/06 03:02:15;;;;;;;10.80;7.85;;;2.50;99.90;;;;;;4975487;28;20125;-81
2023/04/06 03:04:41;;;;;;;10.93;7.45;;;2.40;99.90;;;;;;4958890;28;20454;-81
2023/04/06 03:07:07;;;;;;;12.50;8.57;;;2.60;99.90;;;;;;4958314;28;20082;-81
2023/04/06 03:09:33;;;;;;;11.20;7.75;;;2.60;99.90;;;;;;4958588;28;20083;-81
2023/04/06 03:11:59;;;;;;;10.15;7.47;;;2.40;99.90;;;;;;4975614;28;20404;-81
2023/04/06 03:14:25;;;;;;;12.13;7.45;;;2.30;99.90;;;;;;4975251;28;20125;-80
2023/04/06 03:16:51;;;;;;;10.65;7.30;;;2.40;99.90;;;;;;4975127;28;20150;-81
2023/04/06 03:19:16;;;;;;;11.80;8.07;;;2.30;99.90;;;;;;4975725;28;20059;-81
2023/04/06 03:21:42;;;;;;;10.15;7.20;;;2.30;99.90;;;;;;4958508;28;20393;-81
2023/04/06 03:24:08;;;;;;;15.23;7.82;;;2.40;99.90;;;;;;4957668;28;20137;-81
2023/04/06 03:26:34;;;;;;;10.68;7.35;;;2.40;99.90;;;;;;4975069;28;20047;-80
2023/04/06 03:29:00;;;;;;;11.13;7.70;;;2.30;99.90;;;;;;4957997;28;20043;-81
2023/04/06 03:31:26;;;;;;;9.10;7.50;;;2.50;99.90;;;;;;4975596;28;20096;-81
2023/04/06 03:33:52;;;;;;;12.43;7.70;;;2.30;99.90;;;;;;4957661;28;20051;-82
2023/04/06 03:36:18;;;;;;;11.27;7.55;;;2.20;99.90;;;;;;4958801;28;20045;-81
2023/04/06 03:38:44;;;;;;;10.68;7.43;;;2.40;99.90;;;;;;4957311;28;20043;-81
2023/04/06 03:41:10;;;;;;;12.75;7.55;;;2.20;99.90;;;;;;4974918;28;20050;-81
2023/04/06 03:43:36;;;;;;;11.38;8.05;;;2.30;99.90;;;;;;4974929;28;20053;-81
2023/04/06 03:46:01;;;;;;;10.10;7.32;;;2.40;99.90;;;;;;4957544;28;20126;-81
2023/04/06 03:48:27;;;;;;;11.85;7.97;;;2.10;99.90;;;;;;4957970;28;20129;-80
2023/04/06 03:50:53;;;;;;;10.45;8.07;;;2.10;99.90;;;;;;4974752;28;20047;-80
2023/04/06 03:53:19;;;;;;;11.77;8.25;;;2.10;99.90;;;;;;4957514;28;20098;-80
2023/04/06 03:55:44;;;;;;;11.43;7.55;;;2.10;99.90;;;;;;4958163;28;20127;-80
2023/04/06 03:58:10;;;;;;;11.82;8.27;;;2.30;99.90;;;;;;4974707;28;20496;-81
2023/04/06 04:00:36;;;;;;;12.27;8.35;;;2.10;99.90;;;;;;4957451;28;20055;-80
2023/04/06 04:03:02;;;;;;;12.50;8.85;;;2.10;99.90;;;;;;4974847;28;20042;-80
2023/04/06 04:05:28;;;;;;;11.63;7.75;;;2.10;99.90;;;;;;4976439;28;20512;-81
2023/04/06 04:07:54;;;;;;;9.52;7.28;;;2.00;99.90;;;;;;4976848;28;20046;-81
2023/04/06 04:10:19;;;;;;;11.85;8.30;;;2.00;99.90;;;;;;4960399;28;20134;-81
2023/04/06 04:12:45;;;;;;;11.68;8.27;;;2.20;99.90;;;;;;4965045;28;20047;-81
2023/04/06 04:15:11;;;;;;;10.82;6.70;;;2.00;99.90;;;;;;4964609;28;20393;-80
2023/04/06 04:17:36;;;;;;;11.10;7.90;;;2.20;99.90;;;;;;4958299;28;20050;-81
2023/04/06 04:20:02;;;;;;;11.07;7.78;;;2.00;99.90;;;;;;4975398;28;20098;-81
2023/04/06 04:22:28;;;;;;;10.48;7.63;;;1.90;99.90;;;;;;4974588;28;20081;-81
2023/04/06 04:24:54;;;;;;;10.45;7.63;;;2.40;99.90;;;;;;4974414;28;20058;-81
2023/04/06 04:27:20;;;;;;;13.77;7.93;;;2.20;99.90;;;;;;4957466;28;20043;-81
2023/04/06 04:29:46;;;;;;;11.98;8.13;;;1.80;99.90;;;;;;4957328;28;20057;-81
2023/04/06 04:32:12;;;;;;;10.00;7.30;;;2.20;99.90;;;;;;4957397;28;20050;-81
2023/04/06 04:34:40;;;;;;;11.95;7.35;;;1.80;99.90;;;;;;4957159;28;20068;-80
2023/04/06 04:37:06;;;;;;;11.57;7.97;;;2.20;99.90;;;;;;4960112;28;20058;-81
2023/04/06 04:39:32;;;;;;;10.90;7.28;;;1.80;99.90;;;;;;4960818;28;20075;-81
2023/04/06 04:41:58;;;;;;;10.98;6.88;;;1.80;99.90;;;;;;4978736;28;20171;-81
2023/04/06 04:44:23;;;;;;;11.15;7.75;;;2.10;99.90;;;;;;4979898;28;20262;-81
2023/04/06 04:46:49;;;;;;;8.23;6.32;;;1.90;99.90;;;;;;4930289;28;20138;-80
2023/04/06 04:49:15;;;;;;;9.80;6.43;;;2.00;99.90;;;;;;4983164;28;20107;-81
2023/04/06 04:51:41;;;;;;;9.93;7.63;;;1.80;99.90;;;;;;4987196;28;20073;-81
2023/04/06 04:54:06;;;;;;;9.63;6.85;;;1.90;99.90;;;;;;4962875;28;20500;-81
2023/04/06 04:56:32;;;;;;;8.52;7.00;;;2.10;99.90;;;;;;4977960;28;20412;-81
2023/04/06 04:58:59;;;;;;;10.20;7.13;;;2.10;99.90;;;;;;4977719;28;20046;-81
2023/04/06 05:01:25;;;;;;;10.50;6.97;;;1.80;99.90;;;;;;4961578;28;20050;-81
2023/04/06 05:03:51;;;;;;;11.18;7.43;;;1.90;99.90;;;;;;4977677;28;20068;-80
2023/04/06 05:06:17;;;;;;;13.27;8.25;;;1.80;99.90;;;;;;4944320;28;20055;-80
2023/04/06 05:08:43;;;;;;;10.65;7.47;;;1.90;99.90;;;;;;4977661;28;20192;-80
2023/04/06 05:11:09;;;;;;;10.52;7.40;;;1.80;99.90;;;;;;4977705;28;20051;-81
2023/04/06 05:13:35;;;;;;;10.73;7.43;;;1.80;99.90;;;;;;4977757;28;20485;-80
2023/04/06 05:16:01;;;;;;;14.02;7.38;;;1.70;99.90;;;;;;4960102;28;20055;-81
2023/04/06 05:18:27;;;;;;;11.10;7.50;;;1.80;99.90;;;;;;4960987;28;20051;-80
2023/04/06 05:20:53;;;;;;;10.43;7.53;;;1.70;99.90;;;;;;4960275;28;20050;-80
2023/04/06 05:23:19;;;;;;;11.43;7.47;;;1.90;99.90;;;;;;4977229;28;20047;-80
2023/04/06 05:25:44;;;;;;;11.73;7.30;;;2.20;99.90;;;;;;4960233;28;20047;-80
2023/04/06 05:28:10;;;;;;;10.48;7.18;;;1.90;99.90;;;;;;4977238;28;20104;-80
2023/04/06 05:30:36;;;;;;;10.55;7.57;;;1.80;99.90;;;;;;4960113;28;20050;-80
2023/04/06 05:33:02;;;;;;;10.48;7.47;;;1.90;99.90;;;;;;4977280;28;20182;-81
2023/04/06 05:35:28;;;;;;;11.10;7.18;;;1.80;99.90;;;;;;4976932;28;20532;-80
2023/04/06 05:37:54;;;;;;;13.50;7.28;;;2.10;99.90;;;;;;4960926;28;20133;-80
2023/04/06 05:40:19;;;;;;;9.43;6.93;;;2.00;99.90;;;;;;4977400;28;20046;-80
2023/04/06 05:42:46;;;;;;;12.30;6.85;;;1.90;99.90;;;;;;4944451;28;20054;-80
2023/04/06 05:45:16;;;;;;;11.52;6.85;;;1.90;99.90;;;;;;4976475;28;20575;-80
2023/04/06 05:47:45;;;;;;;9.13;7.07;;;1.80;99.90;;;;;;4959197;28;20489;-80
2023/04/06 05:50:12;;;;;;;9.02;6.40;;;2.30;99.90;;;;;;4976963;28;20062;-80
2023/04/06 05:52:38;;;;;;;11.52;6.55;;;2.30;99.90;;;;;;4976660;28;20050;-80
2023/04/06 05:55:04;;;;;;;8.80;6.55;;;2.10;99.90;;;;;;4943587;28;20046;-80
2023/04/06 05:57:30;;;;;;;8.45;6.40;;;2.10;99.90;;;;;;4977241;28;20484;-80
2023/04/06 05:59:56;;;;;;;9.23;6.60;;;2.30;99.90;;;;;;4976636;28;20137;-80
2023/04/06 06:02:22;;;;;;;9.65;6.13;;;2.20;99.90;;;;;;4976460;28;20102;-80
2023/04/06 06:04:48;;;;;;;7.93;5.72;;;2.40;99.90;;;;;;4976263;28;20050;-80
2023/04/06 06:07:17;;;;;;;9.45;6.22;;;2.30;99.90;;;;;;4944123;28;20074;-80
2023/04/06 06:09:43;;;;;;;11.35;6.43;;;2.40;99.90;;;;;;4976907;28;20047;-80
2023/04/06 06:12:09;;;;;;;8.23;6.20;;;2.40;99.90;;;;;;4976029;28;20397;-80
2023/04/06 06:14:34;;;;;;;8.55;6.18;;;2.50;99.90;;;;;;4976246;28;20047;-80
2023/04/06 06:17:00;;;;;;;10.57;5.70;;;2.60;99.90;;;;;;4959875;28;20141;-80
2023/04/06 06:19:26;;;;;;;7.80;6.20;;;2.50;99.90;;;;;;4976685;28;20544;-80
2023/04/06 06:21:51;;;;;;;9.70;5.90;;;2.60;99.90;;;;;;4976049;28;20051;-80
2023/04/06 06:24:17;;;;;;;8.68;6.50;;;2.60;99.90;;;;;;4976134;28;20105;-80
2023/04/06 06:26:43;;;;;;;8.85;6.07;;;2.70;99.90;;;;;;4975994;28;20050;-79
2023/04/06 06:29:09;;;;;;;7.82;5.75;;;2.80;99.90;;;;;;4959708;28;20057;-80
2023/04/06 06:31:35;;;;;;;9.52;5.85;;;2.70;99.90;;;;;;4958762;28;20046;-79
2023/04/06 06:34:01;;;;;;;8.10;6.05;;;2.60;99.90;;;;;;4958669;28;20047;-80
2023/04/06 06:36:31;;;;;;;8.43;5.40;;;2.80;99.90;;;;;;4958771;28;20469;-79
2023/04/06 06:38:58;;;;;;;7.35;5.55;;;2.90;99.90;;;;;;4942721;28;20058;-79
2023/04/06 06:41:25;;;;;;;9.10;6.18;;;2.90;99.90;;;;;;4976343;28;20057;-80
2023/04/06 06:43:51;;;;;;;7.97;6.57;;;3.00;99.90;;;;;;4958377;28;20484;-79
2023/04/06 06:46:17;;;;;;;8.35;5.70;;;3.00;99.90;;;;;;4976321;28;20054;-80
2023/04/06 06:48:43;;;;;;;8.40;5.43;;;3.30;99.90;;;;;;4975639;28;20101;-79
2023/04/06 06:51:09;;;;;;;8.32;5.90;;;3.20;99.90;;;;;;4975401;28;20050;-79
2023/04/06 06:53:35;;;;;;;8.85;5.82;;;3.60;99.90;;;;;;4958915;28;20054;-80
2023/04/06 06:56:01;;;;;;;8.32;6.18;;;3.30;99.90;;;;;;4975269;28;20058;-80
2023/04/06 06:58:27;;;;;;;9.57;6.47;;;3.40;99.90;;;;;;4957622;28;20066;-79
2023/04/06 07:00:59;;;;;;;6.95;5.50;;;3.40;99.90;;;;;;4958150;28;20417;-79
2023/04/06 07:03:25;;;;;;;7.78;5.55;;;3.40;99.90;;;;;;4958059;28;20126;-79
2023/04/06 07:05:54;;;;;;;7.60;5.50;;;3.40;99.90;;;;;;4975241;28;20043;-79
2023/04/06 07:08:21;;;;;;;7.88;6.28;;;3.60;99.90;;;;;;4942644;28;20416;-80
2023/04/06 07:10:47;;;;;;;8.57;6.13;;;3.60;99.90;;;;;;4958699;28;20468;-79
2023/04/06 07:13:18;;;;;;;14.57;9.63;;;3.60;99.90;;;;;;4975246;28;20047;-79
2023/04/06 07:15:44;;;;;;;8.70;6.53;;;3.80;99.90;;;;;;4958437;28;20050;-78
2023/04/06 07:18:10;;;;;;;10.18;6.85;;;3.70;99.90;;;;;;4975014;28;20057;-79
2023/04/06 07:20:35;;;;;;;8.43;6.35;;;3.90;99.90;;;;;;4942072;28;20054;-78
2023/04/06 07:23:02;;;;;;;8.57;6.07;;;3.90;99.90;;;;;;4975327;28;20071;-78
2023/04/06 07:25:28;;;;;;;11.05;6.25;;;4.00;99.90;;;;;;4958523;28;20109;-79
2023/04/06 07:27:54;;;;;;;8.50;6.38;;;4.00;99.90;;;;;;4974974;28;20386;-79
2023/04/06 07:30:21;;;;;;;9.70;6.88;;;4.10;99.90;;;;;;4926191;28;20109;-77
2023/04/06 07:32:48;;;;;;;13.25;8.40;;;4.10;99.90;;;;;;4975510;28;20101;-77
2023/04/06 07:35:14;;;;;;;11.25;6.93;;;4.20;99.90;;;;;;4957741;28;20050;-77
2023/04/06 07:37:40;;;;;;;9.32;5.80;;;4.30;99.90;;;;;;4974905;28;20046;-77
2023/04/06 07:40:06;;;;;;;8.05;5.93;;;4.40;99.90;;;;;;4974897;28;20100;-76
2023/04/06 07:42:32;;;;;;;8.85;6.10;;;4.60;99.90;;;;;;4958627;28;20047;-76
2023/04/06 07:44:58;;;;;;;7.50;5.57;;;4.50;99.90;;;;;;4957733;28;20399;-76
2023/04/06 07:47:24;;;;;;;10.30;5.70;;;4.60;99.90;;;;;;4974920;28;20050;-77
2023/04/06 07:49:50;;;;;;;7.03;5.78;;;4.70;99.90;;;;;;4974803;28;20042;-76
2023/04/06 07:52:16;;;;;;;7.68;6.13;;;4.90;99.90;;;;;;4974888;28;20220;-77
2023/04/06 07:54:42;;;;;;;9.85;6.03;;;4.70;99.90;;;;;;4974755;28;20043;-75
2023/04/06 07:57:07;;;;;;;8.57;6.35;;;4.90;99.90;;;;;;4974832;28;20186;-76
2023/04/06 07:59:33;;;;;;;6.82;6.00;;;5.00;99.90;;;;;;4958053;28;20130;-75
2023/04/06 08:01:59;;;;;;;8.20;6.22;;;5.00;99.90;;;;;;4974735;28;20072;-77
2023/04/06 08:04:25;;;;;;;7.65;5.80;;;5.10;99.90;;;;;;4974495;28;20054;-76
2023/04/06 08:06:50;;;;;;;9.70;6.55;;;5.10;99.90;;;;;;4957681;28;20051;-76
2023/04/06 08:09:16;;;;;;;9.77;5.68;;;5.30;99.90;;;;;;4957737;28;20431;-76
2023/04/06 08:11:42;;;;;;;11.23;5.95;;;5.40;99.90;;;;;;4961544;28;20086;-76
2023/04/06 08:14:08;;;;;;;11.13;7.30;;;5.50;99.90;;;;;;4978528;28;20046;-75
2023/04/06 08:16:33;;;;;;;10.23;7.20;;;5.60;99.90;;;;;;4978646;28;20057;-77
2023/04/06 08:18:59;;;;;;;10.77;6.50;;;5.60;99.90;;;;;;4978432;28;20134;-75
2023/04/06 08:21:25;;;;;;;8.10;5.85;;;5.70;99.90;;;;;;4978105;28;20090;-78
2023/04/06 08:23:50;;;;;;;7.50;5.68;;;5.90;99.90;;;;;;4961561;28;20061;-77
2023/04/06 08:26:16;;;;;;;8.00;6.10;;;5.80;99.90;;;;;;4978939;28;20047;-78
2023/04/06 08:28:42;;;;;;;9.80;6.57;;;5.90;99.90;;;;;;4961657;28;20086;-78
2023/04/06 08:31:08;;;;;;;11.18;6.43;;;6.10;99.90;;;;;;4978774;28;20536;-78
2023/04/06 08:33:38;;;;;;;9.07;6.20;;;6.10;99.90;;;;;;4961153;28;20097;-79
2023/04/06 08:36:12;;;;;;;8.45;6.50;;;6.20;99.90;;;;;;4978657;28;20082;-78
2023/04/06 08:38:38;;;;;;;10.55;6.28;;;6.20;99.90;;;;;;4978767;28;20457;-79
2023/04/06 08:41:11;;;;;;;10.57;5.97;;;6.40;99.90;;;;;;4978590;28;20384;-78
2023/04/06 08:43:46;;;;;;;9.45;6.10;;;6.50;99.90;;;;;;4961345;28;20086;-78
2023/04/06 08:46:12;;;;;;;8.55;6.22;;;6.60;99.90;;;;;;4978377;28;20042;-79
2023/04/06 08:48:42;;;;;;;8.15;6.35;;;6.60;99.90;;;;;;4977841;28;20494;-78
2023/04/06 08:51:09;;;;;;;9.43;6.93;;;6.70;99.90;;;;;;4978677;28;20370;-78
2023/04/06 08:53:35;;;;;;;7.95;6.07;;;6.80;99.90;;;;;;4977796;28;20086;-80
2023/04/06 08:56:02;;;;;;;10.30;6.45;;;6.80;99.90;;;;;;4978275;28;20066;-79
2023/04/06 08:58:34;;;;;;;9.15;5.82;;;7.00;99.90;;;;;;4978457;28;20385;-79
2023/04/06 09:01:01;;;;;;;9.97;5.80;;;7.10;99.90;;;;;;4977868;28;20115;-79
2023/04/06 09:03:29;;;;;;;10.90;5.80;;;7.10;99.90;;;;;;4977480;28;20293;-77
2023/04/06 09:05:55;;;;;;;7.90;5.95;;;7.20;99.90;;;;;;4977449;28;20138;-80
2023/04/06 09:08:21;;;;;;;7.75;6.30;;;7.30;99.90;;;;;;4977503;28;20078;-80
2023/04/06 09:10:48;;;;;;;9.30;6.30;;;7.30;99.90;;;;;;4977472;28;20447;-80
2023/04/06 09:13:14;;;;;;;8.30;6.18;;;7.40;99.90;;;;;;4977417;28;20047;-75
2023/04/06 09:15:40;;;;;;;7.43;5.78;;;7.50;99.90;;;;;;4977370;28;20054;-73
2023/04/06 09:18:06;;;;;;;8.20;6.00;;;7.60;99.90;;;;;;4977295;28;20051;-74
2023/04/06 09:20:31;;;;;;;7.53;6.07;;;7.70;99.90;;;;;;4960736;28;20043;-74
2023/04/06 09:22:57;;;;;;;7.18;5.80;;;7.80;99.90;;;;;;4976484;28;20050;-75
2023/04/06 09:25:28;;;;;;;8.73;6.22;;;7.90;99.90;;;;;;4977079;28;20138;-74
2023/04/06 09:28:02;;;;;;;7.95;5.88;;;8.00;99.90;;;;;;4977141;28;20051;-73
2023/04/06 09:30:28;;;;;;;8.23;5.60;;;8.10;99.90;;;;;;4977390;28;20050;-74
2023/04/06 09:32:57;;;;;;;7.93;6.05;;;8.10;99.90;;;;;;4959870;28;20393;-74
2023/04/06 09:35:23;;;;;;;9.73;6.75;;;8.20;99.90;;;;;;4977201;28;20115;-74
2023/04/06 09:37:51;;;;;;;8.98;6.05;;;8.30;99.90;;;;;;4959548;28;20054;-74
2023/04/06 09:40:18;;;;;;;8.90;6.25;;;8.40;99.90;;;;;;4959920;28;20131;-74
2023/04/06 09:42:48;;;;;;;7.63;6.00;;;8.40;99.90;;;;;;4976932;28;20444;-74
2023/04/06 09:45:14;;;;;;;9.32;6.43;;;8.50;99.90;;;;;;4977167;28;20045;-74
2023/04/06 09:47:43;;;;;;;7.63;5.57;;;8.60;99.90;;;;;;4959948;28;20055;-75
2023/04/06 09:50:11;;;;;;;9.15;6.95;;;8.70;99.90;;;;;;4959832;28;20125;-75
2023/04/06 09:52:51;;;;;;;9.30;6.22;;;8.80;99.90;;;;;;4976601;28;20058;-75
2023/04/06 09:55:26;;;;;;;9.18;6.07;;;8.90;99.90;;;;;;4944013;28;20043;-74
2023/04/06 09:58:03;;;;;;;9.25;5.78;;;9.00;99.90;;;;;;4976714;28;20055;-74
2023/04/06 10:00:34;;;;;;;9.23;6.28;;;9.00;99.90;;;;;;4977300;28;20101;-74
2023/04/06 10:03:21;;;;;;;7.10;5.82;;;9.20;99.90;;;;;;4977106;28;20066;-74
2023/04/06 10:05:53;;;;;;;7.57;6.03;;;9.20;99.90;;;;;;4976575;28;20126;-75
2023/04/06 10:08:22;;;;;;;10.30;6.07;;;9.30;99.90;;;;;;4976294;28;20556;-73
2023/04/06 10:10:48;;;;;;;9.88;6.97;;;9.40;99.90;;;;;;4976249;28;20058;-75
2023/04/06 10:13:15;;;;;;;14.55;7.22;;;9.40;99.90;;;;;;4976665;28;20061;-74
2023/04/06 10:15:42;;;;;;;9.02;6.85;;;9.50;99.90;;;;;;4976623;28;20100;-74
2023/04/06 10:18:08;;;;;;;10.85;7.22;;;9.60;99.90;;;;;;4976062;28;20133;-74
2023/04/06 10:20:54;;;;;;;8.82;7.30;;;9.70;99.90;;;;;;4959085;28;20066;-74
2023/04/06 10:23:37;;;;;;;8.32;7.10;;;9.80;99.90;;;;;;4976054;28;20050;-75
2023/04/06 10:26:03;;;;;;;10.75;7.32;;;9.90;99.90;;;;;;4976727;28;20082;-74
2023/04/06 10:28:35;;;;;;;10.75;7.95;;;10.00;99.90;;;;;;4976592;28;20354;-75
2023/04/06 10:31:04;;;;;;;12.05;7.93;;;10.10;99.90;;;;;;4976191;28;20046;-74
2023/04/06 10:33:30;;;;;;;12.55;8.50;;;10.20;99.90;;;;;;4975751;28;20050;-75
2023/04/06 10:35:56;;;;;;;13.40;8.73;;;10.30;99.90;;;;;;4975769;28;20047;-75
2023/04/06 10:38:33;;;;;;;13.05;8.70;;;10.40;99.90;;;;;;4958514;28;20054;-75
2023/04/06 10:41:12;;;;;;;13.40;8.52;;;10.40;99.90;;;;;;4975753;28;20046;-74
2023/04/06 10:43:40;;;;;;;16.40;8.65;;;10.50;99.90;;;;;;4975664;28;20058;-74
2023/04/06 10:46:07;;;;;;;12.57;9.18;;;10.60;99.90;;;;;;4975418;28;20078;-75
2023/04/06 10:48:40;;;;;;;12.90;9.77;;;10.70;99.90;;;;;;4975623;28;20109;-74
2023/04/06 10:51:17;;;;;;;15.93;8.80;;;10.80;97.10;;;;;;4959291;28;20054;-74
2023/04/06 10:53:48;;;;;;;16.55;9.32;;;10.90;99.40;;;;;;4975793;28;20078;-74
2023/04/06 10:56:15;;;;;;;14.38;9.65;;;11.00;98.70;;;;;;4975419;28;20393;-74
2023/04/06 10:58:49;;;;;;;15.65;10.50;;;11.00;98.40;;;;;;4958129;28;20477;-75
2023/04/06 11:01:15;;;;;;;;;;;11.10;98.90;;;;;;4975567;28;20051;-75
2023/04/06 11:03:55;;;;;;;12.90;9.13;;;11.10;99.60;;;;;;4975232;28;19922;-75
2023/04/06 11:06:23;;;;;;;12.85;9.70;;;11.20;99.90;;;;;;4957634;28;20118;-75
2023/04/06 11:08:50;;;;;;;15.27;10.15;;;11.20;99.70;;;;;;4975703;28;20155;-75
2023/04/06 11:11:18;;;;;;;17.45;11.05;;;11.30;98.40;;;;;;4957918;28;20057;-75
2023/04/06 11:13:52;;;;;;;15.30;10.48;;;11.30;98.10;;;;;;4975123;28;20055;-74
2023/04/06 11:16:23;;;;;;;17.35;11.32;;;11.40;98.10;;;;;;4975160;28;20038;-74
2023/04/06 11:18:57;;;;;;;14.15;10.63;;;11.40;95.90;;;;;;4975626;28;20063;-74
2023/04/06 11:21:43;;;;;;;14.27;11.13;;;11.40;95.90;;;;;;4975103;28;20058;-74
2023/04/06 11:24:15;;;;;;;17.92;11.93;;;11.50;95.30;;;;;;4975716;28;20058;-74
2023/04/06 11:26:43;;;;;;;16.00;11.18;;;11.50;93.90;;;;;;4975103;28;20050;-74
2023/04/06 11:29:10;;;;;;;17.10;11.60;;;11.50;93.30;;;;;;4974966;28;20051;-75
2023/04/06 11:31:41;;;;;;;16.00;10.98;;;11.60;93.10;;;;;;4958223;28;20393;-75
2023/04/06 11:34:12;;;;;;;16.42;11.98;;;11.70;93.50;;;;;;4957533;28;20051;-75
2023/04/06 11:36:41;;;;;;;18.38;11.95;;;11.70;93.90;;;;;;4974932;28;20042;-75
2023/04/06 11:39:07;;;;;;;16.33;12.18;;;11.80;92.10;;;;;;4974583;28;20516;-76
2023/04/06 11:41:33;;;;;;;17.63;12.05;;;11.80;93.10;;;;;;4974761;28;20053;-75
2023/04/06 11:44:02;;;;;;;15.25;11.63;;;11.90;92.30;;;;;;4974865;28;20412;-74
2023/04/06 11:46:28;;;;;;;18.00;12.25;;;11.90;92.60;;;;;;4974684;28;20054;-74
2023/04/06 11:49:00;;;;;;;18.50;12.43;;;12.00;92.60;;;;;;4957368;28;20105;-75
2023/04/06 11:51:26;;;;;;;18.55;13.25;;;12.10;92.70;;;;;;4958978;28;20046;-74
2023/04/06 11:53:53;;;;;;;19.15;13.68;;;12.10;92.20;;;;;;4975100;28;20093;-73
2023/04/06 11:56:26;;;;;;;19.73;13.02;;;12.10;91.30;;;;;;4941864;28;20087;-74
2023/04/06 11:58:56;;;;;;;18.73;12.63;;;12.10;90.30;;;;;;4975367;28;20064;-74
2023/04/06 12:01:23;;;;;;;18.38;13.60;;;12.20;90.80;;;;;;4975004;28;20046;-74
2023/04/06 12:03:50;;;;;;;18.10;13.40;;;12.20;90.90;;;;;;4957891;28;20054;-76
2023/04/06 12:06:15;;;;;;;20.90;13.77;;;12.20;90.90;;;;;;4974586;28;20078;-73
2023/04/06 12:08:41;;;;;;;21.08;13.77;;;12.20;90.70;;;;;;4925806;28;20042;-74
2023/04/06 12:11:07;;;;;;;19.02;13.25;;;12.20;90.30;;;;;;4974547;28;20105;-74
2023/04/06 12:13:33;;;;;;;20.13;14.02;;;12.20;90.10;;;;;;4974803;28;20479;-77
2023/04/06 12:15:58;;;;;;;18.80;13.85;;;12.10;90.40;;;;;;4958357;28;20513;-76
2023/04/06 12:18:25;;;;;;;19.20;13.63;;;12.10;90.20;;;;;;4974191;28;20117;-75
2023/04/06 12:20:51;;;;;;;21.30;14.40;;;12.10;90.80;;;;;;4957789;28;20079;-75
2023/04/06 12:23:18;;;;;;;19.23;13.95;;;12.10;90.00;;;;;;4957301;28;20057;-75
2023/04/06 12:25:44;;;;;;;18.15;14.30;;;12.20;90.60;;;;;;4974495;28;20057;-75
2023/04/06 12:28:10;;;;;;;19.92;14.63;;;12.30;90.40;;;;;;4942378;28;20050;-75
2023/04/06 12:30:35;;;;;;;18.42;13.43;;;12.30;90.00;;;;;;4974473;28;20050;-75
2023/04/06 12:33:01;;;;;;;19.38;14.27;;;12.40;89.00;;;;;;4974361;28;20078;-75
2023/04/06 12:35:27;;;;;;;19.95;13.55;;;12.40;87.30;;;;;;4957395;28;20133;-76
2023/04/06 12:37:53;;;;;;;18.48;13.55;;;12.50;88.10;;;;;;4957157;28;20130;-75
2023/04/06 12:40:18;;;;;;;18.50;13.20;;;12.40;88.20;;;;;;4974257;28;20133;-74
2023/04/06 12:42:45;;;;;;;19.15;14.10;;;12.40;87.90;;;;;;4974235;28;20078;-75
2023/04/06 12:45:11;;;;;;;18.02;13.57;;;12.50;88.20;;;;;;4974000;28;20129;-76
2023/04/06 12:47:37;;;;;;;18.75;13.70;;;12.50;87.00;;;;;;4974175;28;20094;-75